Погода Болинаона 2 недели

Лусон, Филиппины

24 апреля-07 мая
  • 24апреля
    Сегодня
    +26°
    +37°
    Небольшая облачность
    ВремяПогодаТемператураВлажностьДавлениеВетер, м/сВероятность осадков
    02:00Ясно и безоблачно+28°C79 %756 мм2.3 м/с25 %
    05:00Небольшая облачность+27°C80 %756 мм2.8 м/с8 %
    08:00Небольшая облачность+30°C68 %756 мм3.8 м/с2 %
    11:00Практически безоблачно+35°C61 %756 мм1.4 м/с3 %
    14:00Небольшая облачность+36°C62 %755 мм4.1 м/с11 %
    17:00Облачно с прояснениями+34°C72 %754 мм4.2 м/с14 %
    20:00Ясно и безоблачно+32°C76 %756 мм2.9 м/с16 %
    23:00Ясно и безоблачно+29°C81 %757 мм2.4 м/с11 %
  • 25апреля
    Четверг
    +27°
    +35°
    Ясно и безоблачно
    ВремяПогодаТемператураВлажностьДавлениеВетер, м/сВероятность осадков
    02:00Ясно и безоблачно+27°C82 %756 мм2.7 м/с14 %
    05:00Ясно и безоблачно+27°C82 %756 мм3.4 м/с9 %
    08:00Ясно и безоблачно+30°C68 %757 мм4.8 м/с2 %
    11:00Небольшая облачность+35°C59 %756 мм2.0 м/с5 %
    14:00Ясно и безоблачно+35°C66 %754 мм5.7 м/с14 %
    17:00Ясно и безоблачно+33°C73 %754 мм4.6 м/с15 %
    20:00Ясно и безоблачно+30°C77 %755 мм2.0 м/с13 %
    23:00Ясно и безоблачно+29°C77 %756 мм0.4 м/с6 %
  • 26апреля
    Пятница
    +27°
    +35°
    Небольшая облачность, возможен дождь с грозой
    ВремяПогодаТемператураВлажностьДавлениеВетер, м/сВероятность осадков
    02:00Ясно и безоблачно+28°C81 %755 мм1.2 м/с8 %
    05:00Практически безоблачно+28°C80 %755 мм2.8 м/с15 %
    08:00Ясно и безоблачно+30°C69 %756 мм5.0 м/с14 %
    11:00Небольшая облачность+34°C64 %756 мм3.3 м/с12 %
    14:00Небольшая облачность, возможен дождь с грозой+34°C67 %754 мм5.9 м/с13 %
    17:00Практически безоблачно+32°C68 %754 мм5.5 м/с9 %
    20:00Практически безоблачно+30°C77 %755 мм3.9 м/с3 %
    23:00Небольшая облачность+29°C81 %756 мм1.6 м/с3 %
  • 27апреля
    Суббота
    +26°
    +35°
    Практически безоблачно
    ВремяПогодаТемператураВлажностьДавлениеВетер, м/сВероятность осадков
    02:00Небольшая облачность+28°C83 %755 мм1.4 м/с15 %
    05:00Небольшая облачность+27°C84 %756 мм2.6 м/с33 %
    08:00Облачно с прояснениями+30°C73 %757 мм2.7 м/с12 %
    11:00Небольшая облачность+34°C62 %757 мм0.8 м/с11 %
    14:00Практически безоблачно+35°C64 %754 мм5.0 м/с11 %
    17:00Облачно с прояснениями+32°C68 %754 мм4.9 м/с4 %
    20:00Небольшая облачность+30°C75 %756 мм1.5 м/с2 %
    23:00Ясно и безоблачно+29°C77 %757 мм0.3 м/с4 %
  • 28апреля
    Воскресенье
    +27°
    +37°
    Небольшая облачность
    ВремяПогодаТемператураВлажностьДавлениеВетер, м/сВероятность осадков
    02:00Ясно и безоблачно+28°C81 %756 мм1.0 м/с14 %
    05:00Ясно и безоблачно+28°C82 %756 мм2.6 м/с12 %
    08:00Ясно и безоблачно+30°C74 %758 мм2.7 м/с12 %
    11:00Практически безоблачно+35°C63 %757 мм2.7 м/с7 %
    14:00Небольшая облачность+35°C67 %755 мм4.3 м/с20 %
    17:00Ясно и безоблачно+34°C73 %755 мм4.6 м/с17 %
    20:00Небольшая облачность, возможен дождь с грозой+29°C83 %757 мм1.7 м/с30 %
    23:00Небольшая облачность+28°C84 %757 мм1.1 м/с33 %
Мы используем cookies
Соглашаюсь